createdAt,value
2023-02-14T00:01:56.925Z,99710.61
2023-02-14T00:04:25.987Z,99710.53
2023-02-14T00:06:54.392Z,99706.97
2023-02-14T00:09:22.863Z,99700.63
2023-02-14T00:11:55.043Z,99704.13
2023-02-14T00:14:56.588Z,99698.27
2023-02-14T00:17:25.174Z,99693.65
2023-02-14T00:19:53.586Z,99700.77
2023-02-14T00:22:22.138Z,99697.21
2023-02-14T00:24:51.237Z,99692.42
2023-02-14T00:27:19.718Z,99691.14
2023-02-14T00:29:48.355Z,99691.98
2023-02-14T00:32:16.787Z,99694.81
2023-02-14T00:34:46.611Z,99693.48
2023-02-14T00:37:16.311Z,99701.11
2023-02-14T00:39:44.796Z,99695.09
2023-02-14T00:42:13.992Z,99694.57
2023-02-14T00:44:42.578Z,99682.42
2023-02-14T00:47:10.959Z,99678.89
2023-02-14T00:49:39.381Z,99675.94
2023-02-14T00:52:07.829Z,99670.71
2023-02-14T00:54:36.507Z,99656.45
2023-02-14T00:57:05.402Z,99656.13
2023-02-14T00:59:33.992Z,99656.63
2023-02-14T01:02:05.302Z,99654.14
2023-02-14T01:04:34.467Z,99660.11
2023-02-14T01:07:03.426Z,99662.57
2023-02-14T01:09:31.808Z,99659.31
2023-02-14T01:12:03.976Z,99656.91
2023-02-14T01:14:32.765Z,99647.14
2023-02-14T01:17:02.987Z,99648.06
2023-02-14T01:19:31.785Z,99644.39
2023-02-14T01:22:01.694Z,99648.85
2023-02-14T01:24:30.586Z,99649.22
2023-02-14T01:27:01.839Z,99642.88
2023-02-14T01:29:30.562Z,99648.54
2023-02-14T01:31:59.291Z,99648.55
2023-02-14T01:34:48.276Z,99646.05
2023-02-14T01:37:16.654Z,99638.96
2023-02-14T01:39:46.060Z,99637.92
2023-02-14T01:42:16.122Z,99638.43
2023-02-14T01:44:50.403Z,99625.27
2023-02-14T01:47:19.086Z,99623.83
2023-02-14T01:49:50.028Z,99616.03
2023-02-14T01:52:25.047Z,99602.10
2023-02-14T01:54:56.617Z,99608.52
2023-02-14T01:57:25.066Z,99597.15
2023-02-14T01:59:55.943Z,99594.54
2023-02-14T02:02:24.840Z,99595.95
2023-02-14T02:04:54.391Z,99590.08
2023-02-14T02:07:25.020Z,99583.64
2023-02-14T02:09:58.586Z,99572.63
2023-02-14T02:12:29.796Z,99570.98
2023-02-14T02:15:00.658Z,99564.63
2023-02-14T02:18:12.157Z,99575.80
2023-02-14T02:21:02.755Z,99589.23
2023-02-14T02:23:34.511Z,99595.36
2023-02-14T02:26:19.075Z,99599.73
2023-02-14T02:28:50.522Z,99592.95
2023-02-14T02:31:47.294Z,99591.88
2023-02-14T02:34:30.817Z,99581.54
2023-02-14T02:37:10.655Z,99575.87
2023-02-14T02:40:06.586Z,99571.77
2023-02-14T02:43:13.668Z,99581.61
2023-02-14T02:46:17.944Z,99578.89
2023-02-14T02:48:59.988Z,99576.79
2023-02-14T02:52:07.109Z,99580.53
2023-02-14T02:54:38.225Z,99581.50
2023-02-14T02:57:10.698Z,99584.20
2023-02-14T02:59:40.731Z,99582.69
2023-02-14T03:02:09.138Z,99587.48
2023-02-14T03:04:55.398Z,99594.06
2023-02-14T03:07:36.889Z,99598.42
2023-02-14T03:10:17.374Z,99611.86
2023-02-14T03:13:09.610Z,99610.83
2023-02-14T03:15:53.388Z,99605.73
2023-02-14T03:18:34.714Z,99613.50
2023-02-14T03:21:14.462Z,99617.06
2023-02-14T03:24:05.474Z,99619.54
2023-02-14T03:26:43.685Z,99605.02
2023-02-14T03:29:14.139Z,99615.05
2023-02-14T03:32:04.519Z,99615.08
2023-02-14T03:35:07.912Z,99622.27
2023-02-14T03:37:51.755Z,99623.77
2023-02-14T03:40:37.132Z,99633.36
2023-02-14T03:43:17.501Z,99628.71
2023-02-14T03:45:52.562Z,99639.52
2023-02-14T03:48:21.924Z,99640.39
2023-02-14T03:50:50.696Z,99647.11
2023-02-14T03:53:21.971Z,99648.33
2023-02-14T03:56:09.093Z,99645.75
2023-02-14T03:58:39.542Z,99644.05
2023-02-14T04:01:16.646Z,99646.19
2023-02-14T04:03:45.030Z,99645.05
2023-02-14T04:06:13.775Z,99648.16
2023-02-14T04:08:42.664Z,99653.71
2023-02-14T04:11:11.053Z,99652.08
2023-02-14T04:13:40.452Z,99654.60
2023-02-14T04:16:10.132Z,99652.81
2023-02-14T04:18:57.488Z,99652.84
2023-02-14T04:21:26.074Z,99651.36
2023-02-14T04:23:54.448Z,99650.51
2023-02-14T04:26:23.345Z,99643.44
2023-02-14T04:28:52.133Z,99644.02
2023-02-14T04:31:20.623Z,99644.15
2023-02-14T04:33:51.488Z,99650.70
2023-02-14T04:36:19.830Z,99648.58
2023-02-14T04:38:48.433Z,99646.04
2023-02-14T04:41:17.000Z,99651.27
2023-02-14T04:43:45.483Z,99655.05
2023-02-14T04:46:14.435Z,99660.54
2023-02-14T04:48:42.857Z,99663.91
2023-02-14T04:51:11.236Z,99670.55
2023-02-14T04:53:40.663Z,99677.04
2023-02-14T04:56:14.349Z,99670.52
2023-02-14T04:58:42.521Z,99683.27
2023-02-14T05:01:10.949Z,99682.14
2023-02-14T05:03:39.384Z,99689.23
2023-02-14T05:06:08.384Z,99693.25
2023-02-14T05:08:36.681Z,99701.18
2023-02-14T05:11:05.360Z,99701.08
2023-02-14T05:13:33.925Z,99703.95
2023-02-14T05:16:02.885Z,99703.91
2023-02-14T05:18:31.823Z,99705.92
2023-02-14T05:21:00.482Z,99710.77
2023-02-14T05:23:29.497Z,99709.75
2023-02-14T05:25:57.876Z,99704.21
2023-02-14T05:28:26.257Z,99706.77
2023-02-14T05:30:55.186Z,99707.73
2023-02-14T05:33:24.759Z,99714.88
2023-02-14T05:35:53.239Z,99720.34
2023-02-14T05:38:24.792Z,99721.45
2023-02-14T05:40:53.171Z,99728.02
2023-02-14T05:43:21.657Z,99726.40
2023-02-14T05:45:51.586Z,99723.54
2023-02-14T05:48:20.054Z,99717.62
2023-02-14T05:50:48.559Z,99714.64
2023-02-14T05:53:17.233Z,99718.01
2023-02-14T05:55:45.606Z,99714.35
2023-02-14T05:58:14.092Z,99707.39
2023-02-14T06:00:42.592Z,99715.00
2023-02-14T06:03:11.366Z,99714.80
2023-02-14T06:05:40.568Z,99714.85
2023-02-14T06:08:09.457Z,99713.02
2023-02-14T06:10:38.563Z,99721.67
2023-02-14T06:13:12.158Z,99719.21
2023-02-14T06:15:41.869Z,99720.58
2023-02-14T06:18:10.404Z,99728.17
2023-02-14T06:20:38.958Z,99729.98
2023-02-14T06:23:07.438Z,99732.30
2023-02-14T06:25:35.823Z,99736.91
2023-02-14T06:28:04.215Z,99733.90
2023-02-14T06:30:34.100Z,99733.93
2023-02-14T06:33:02.807Z,99742.69
2023-02-14T06:35:35.985Z,99740.97
2023-02-14T06:38:04.361Z,99738.44
2023-02-14T06:40:32.739Z,99738.27
2023-02-14T06:43:01.456Z,99743.00
2023-02-14T06:45:29.920Z,99738.09
2023-02-14T06:48:00.369Z,99746.13
2023-02-14T06:50:28.820Z,99753.32
2023-02-14T06:52:57.205Z,99752.45
2023-02-14T06:55:25.991Z,99752.55
2023-02-14T06:57:56.318Z,99753.17
2023-02-14T07:00:24.700Z,99748.46
2023-02-14T07:02:54.039Z,99751.77
2023-02-14T07:05:22.791Z,99752.66
2023-02-14T07:07:52.705Z,99748.23
2023-02-14T07:10:20.984Z,99750.83
2023-02-14T07:12:49.468Z,99753.34
2023-02-14T07:15:18.052Z,99760.42
2023-02-14T07:17:46.444Z,99762.23
2023-02-14T07:20:19.319Z,99762.20
2023-02-14T07:22:47.803Z,99764.55
2023-02-14T07:25:16.191Z,99761.69
2023-02-14T07:27:44.583Z,99755.85
2023-02-14T07:30:13.759Z,99752.64
2023-02-14T07:32:42.050Z,99756.15
2023-02-14T07:35:10.635Z,99747.81
2023-02-14T07:37:39.111Z,99749.00
2023-02-14T07:40:14.368Z,99743.27
2023-02-14T07:42:43.980Z,99735.55
2023-02-14T07:45:22.075Z,99732.66
2023-02-14T07:47:51.264Z,99733.27
2023-02-14T07:50:20.572Z,99730.64
2023-02-14T07:52:48.847Z,99735.63
2023-02-14T07:55:17.124Z,99740.04
2023-02-14T07:57:47.348Z,99739.40
2023-02-14T08:00:15.847Z,99741.02
2023-02-14T08:02:44.727Z,99738.74
2023-02-14T08:05:13.272Z,99736.42
2023-02-14T08:07:42.405Z,99734.18
2023-02-14T08:10:12.907Z,99727.86
2023-02-14T08:13:00.218Z,99727.14
2023-02-14T08:15:48.109Z,99726.29
2023-02-14T08:18:18.524Z,99732.52
2023-02-14T08:20:51.519Z,99733.08
2023-02-14T08:23:21.535Z,99728.80
2023-02-14T08:25:50.222Z,99730.34
2023-02-14T08:28:18.701Z,99729.45
2023-02-14T08:30:47.497Z,99726.75
2023-02-14T08:33:15.771Z,99725.06
2023-02-14T08:35:44.047Z,99723.14
2023-02-14T08:38:15.397Z,99733.94
2023-02-14T08:40:43.778Z,99732.97
2023-02-14T08:43:12.475Z,99727.61
2023-02-14T08:47:45.579Z,99723.73
2023-02-14T08:50:16.621Z,99726.20
2023-02-14T08:52:45.009Z,99725.14
2023-02-14T08:55:13.689Z,99735.98
2023-02-14T08:57:43.226Z,99729.95
2023-02-14T09:00:12.802Z,99738.41
2023-02-14T09:02:43.549Z,99737.14
2023-02-14T09:05:13.360Z,99732.76
2023-02-14T09:07:41.734Z,99728.55
2023-02-14T09:10:10.660Z,99726.17
2023-02-14T09:12:41.681Z,99732.24
2023-02-14T09:15:10.696Z,99743.70
2023-02-14T09:17:39.268Z,99741.55
2023-02-14T09:20:09.372Z,99742.45
2023-02-14T09:22:37.891Z,99742.91
2023-02-14T09:25:06.953Z,99739.90
2023-02-14T09:27:36.569Z,99739.24
2023-02-14T09:30:09.622Z,99737.11
2023-02-14T09:32:39.484Z,99723.17
2023-02-14T09:35:08.521Z,99724.14
2023-02-14T09:37:55.586Z,99722.36
2023-02-14T09:40:24.990Z,99715.98
2023-02-14T09:43:02.334Z,99719.27
2023-02-14T09:45:31.614Z,99723.71
2023-02-14T09:48:04.681Z,99714.45
2023-02-14T09:50:40.633Z,99716.27
2023-02-14T09:53:33.301Z,99719.58
2023-02-14T09:56:20.200Z,99718.88
2023-02-14T09:59:19.003Z,99722.72
2023-02-14T10:01:50.465Z,99726.38
2023-02-14T10:04:40.144Z,99727.52
2023-02-14T10:07:24.187Z,99722.16
2023-02-14T10:09:56.449Z,99726.12
2023-02-14T10:12:37.119Z,99722.64
2023-02-14T10:15:13.688Z,99722.16
2023-02-14T10:17:53.746Z,99724.41
2023-02-14T10:20:24.593Z,99720.65
2023-02-14T10:23:35.269Z,99716.37
2023-02-14T10:26:05.958Z,99713.02
2023-02-14T10:28:36.324Z,99723.52
2023-02-14T10:31:27.776Z,99718.43
2023-02-14T10:33:59.914Z,99727.63
2023-02-14T10:36:34.743Z,99726.14
2023-02-14T10:39:19.200Z,99718.55
2023-02-14T10:42:11.035Z,99717.15
2023-02-14T10:45:12.911Z,99710.92
2023-02-14T10:47:57.663Z,99703.73
2023-02-14T10:50:36.900Z,99695.52
2023-02-14T10:53:29.454Z,99696.42
2023-02-14T11:19:27.704Z,99684.45
2023-02-14T11:21:57.710Z,99682.36
2023-02-14T11:24:26.514Z,99679.05
2023-02-14T11:26:59.525Z,99678.80
2023-02-14T11:29:29.413Z,99682.37
2023-02-14T11:31:58.059Z,99678.08
2023-02-14T11:34:33.958Z,99673.65
2023-02-14T11:37:26.094Z,99666.16
2023-02-14T11:39:55.831Z,99663.58
2023-02-14T11:42:40.373Z,99654.02
2023-02-14T11:45:33.428Z,99658.14
2023-02-14T11:48:36.576Z,99669.84
2023-02-14T11:51:14.596Z,99671.58
2023-02-14T11:53:55.002Z,99667.81
2023-02-14T11:56:23.950Z,99665.38
2023-02-14T11:59:00.965Z,99664.05
2023-02-14T12:01:31.239Z,99673.84
2023-02-14T12:04:05.538Z,99670.64
2023-02-14T12:06:35.610Z,99670.16
2023-02-14T12:09:22.322Z,99666.33
2023-02-14T12:12:00.882Z,99667.33
2023-02-14T12:14:31.294Z,99672.86
2023-02-14T12:17:08.175Z,99670.39
2023-02-14T12:19:36.863Z,99655.02
2023-02-14T12:22:06.473Z,99670.91
2023-02-14T12:24:38.552Z,99667.02
2023-02-14T12:27:30.607Z,99670.70
2023-02-14T12:30:19.567Z,99671.07
2023-02-14T12:32:50.481Z,99669.41
2023-02-14T12:35:40.771Z,99668.45
2023-02-14T12:38:24.709Z,99665.45
2023-02-14T12:41:18.893Z,99665.55
2023-02-14T12:43:57.230Z,99660.89
2023-02-14T12:46:44.032Z,99662.20
2023-02-14T12:49:47.936Z,99657.52
2023-02-14T12:52:44.683Z,99666.67
2023-02-14T12:55:25.450Z,99669.83
2023-02-14T12:58:11.781Z,99671.33
2023-02-14T13:01:05.425Z,99666.92
2023-02-14T13:03:39.643Z,99669.54
2023-02-14T13:06:17.655Z,99678.19
2023-02-14T13:09:05.708Z,99676.71
2023-02-14T13:11:45.336Z,99684.25
2023-02-14T13:14:37.165Z,99685.77
2023-02-14T13:17:18.758Z,99684.86
2023-02-14T13:19:56.041Z,99689.62
2023-02-14T13:22:25.459Z,99696.77
2023-02-14T13:25:31.819Z,99698.17
2023-02-14T13:28:02.044Z,99705.44
2023-02-14T13:30:41.436Z,99708.63
2023-02-14T13:33:18.765Z,99711.83
2023-02-14T13:35:47.188Z,99710.09
2023-02-14T13:38:16.460Z,99711.59
2023-02-14T13:40:45.951Z,99720.00
2023-02-14T13:43:14.331Z,99720.52
2023-02-14T13:45:53.956Z,99725.21
2023-02-14T13:48:26.662Z,99728.69
2023-02-14T13:51:03.333Z,99731.96
2023-02-14T13:53:41.032Z,99734.23
2023-02-14T13:56:12.393Z,99739.26
2023-02-14T13:58:52.450Z,99736.73
2023-02-14T14:01:26.954Z,99744.36
2023-02-14T14:03:59.250Z,99738.02
2023-02-14T14:06:29.376Z,99743.44
2023-02-14T14:09:01.618Z,99748.86
2023-02-14T14:11:33.583Z,99754.55
2023-02-14T14:14:21.213Z,99755.12
2023-02-14T14:16:59.180Z,99757.89
2023-02-14T14:19:27.498Z,99765.21
2023-02-14T14:22:14.520Z,99768.66
2023-02-14T14:24:56.311Z,99762.88
2023-02-14T14:27:33.804Z,99783.83
2023-02-14T14:30:07.135Z,99781.05
2023-02-14T14:32:39.180Z,99790.10
2023-02-14T14:35:21.679Z,99790.50
2023-02-14T14:37:54.979Z,99794.28
2023-02-14T14:40:33.494Z,99799.69
2023-02-14T14:43:21.943Z,99800.52
2023-02-14T14:45:53.184Z,99802.18
2023-02-14T14:48:42.767Z,99807.52
2023-02-14T14:51:30.301Z,99797.46
2023-02-14T14:54:01.212Z,99818.30
2023-02-14T14:56:37.505Z,99820.66
2023-02-14T14:59:19.620Z,99819.46
2023-02-14T15:01:48.555Z,99831.55
2023-02-14T15:04:33.772Z,99837.65
2023-02-14T15:07:34.956Z,99840.91
2023-02-14T15:10:03.566Z,99840.59
2023-02-14T15:12:51.052Z,99845.70
2023-02-14T15:15:19.537Z,99852.87
2023-02-14T15:17:51.595Z,99852.87
2023-02-14T15:20:21.819Z,99851.35
2023-02-14T15:22:51.270Z,99861.08
2023-02-14T15:25:27.690Z,99861.38
2023-02-14T15:27:56.997Z,99872.45
2023-02-14T15:30:30.998Z,99876.70
2023-02-14T15:33:06.065Z,99874.30
2023-02-14T15:35:43.027Z,99880.50
2023-02-14T15:38:11.836Z,99885.02
2023-02-14T15:40:40.604Z,99893.92
2023-02-14T15:43:16.474Z,99899.98
2023-02-14T15:45:46.510Z,99913.73
2023-02-14T15:48:33.738Z,99916.63
2023-02-14T15:51:02.705Z,99921.36
2023-02-14T15:53:42.514Z,99928.77
2023-02-14T15:56:22.299Z,99929.77
2023-02-14T15:59:00.417Z,99938.52
2023-02-14T16:01:30.994Z,99942.96
2023-02-14T16:04:01.383Z,99944.50
2023-02-14T16:06:43.873Z,99948.77
2023-02-14T16:09:27.185Z,99951.04
2023-02-14T16:11:58.357Z,99958.45
2023-02-14T16:14:37.484Z,99960.86
2023-02-14T16:17:14.357Z,99964.63
2023-02-14T16:19:44.994Z,99976.20
2023-02-14T16:22:24.242Z,99981.96
2023-02-14T16:24:52.609Z,99985.03
2023-02-14T16:27:23.750Z,99986.31
2023-02-14T16:29:52.168Z,99993.30
2023-02-14T16:32:21.823Z,99995.45
2023-02-14T16:34:50.429Z,99997.63
2023-02-14T16:37:36.322Z,100001.86
2023-02-14T16:40:06.866Z,100007.16
2023-02-14T16:42:37.198Z,100008.31
2023-02-14T16:45:06.506Z,100009.41
2023-02-14T16:47:35.233Z,100012.33
2023-02-14T16:50:03.658Z,100013.88
2023-02-14T16:52:32.239Z,100019.40
2023-02-14T16:55:00.719Z,100018.70
2023-02-14T16:57:30.994Z,100024.09
2023-02-14T16:59:59.439Z,100028.34
2023-02-14T17:02:28.762Z,100030.13
2023-02-14T17:04:57.418Z,100035.42
2023-02-14T17:07:25.799Z,100041.85
2023-02-14T17:09:56.840Z,100043.73
2023-02-14T17:12:27.782Z,100044.26
2023-02-14T17:15:00.264Z,100053.58
2023-02-14T17:17:29.867Z,100055.58
2023-02-14T17:19:58.763Z,100061.33
2023-02-14T17:22:27.264Z,100064.41
2023-02-14T17:24:57.060Z,100069.43
2023-02-14T17:27:26.055Z,100074.34
2023-02-14T17:29:54.572Z,100073.41
2023-02-14T17:32:23.479Z,100077.14
2023-02-14T17:34:52.479Z,100081.80
2023-02-14T17:37:20.910Z,100086.73
2023-02-14T17:39:49.394Z,100094.80
2023-02-14T17:42:17.977Z,100092.55
2023-02-14T17:44:46.558Z,100092.74
2023-02-14T17:47:16.476Z,100097.21
2023-02-14T17:49:47.726Z,100100.34
2023-02-14T17:52:16.411Z,100104.38
2023-02-14T17:54:44.797Z,100103.81
2023-02-14T17:57:13.176Z,100100.80
2023-02-14T17:59:47.086Z,100102.61
2023-02-14T18:02:15.473Z,100103.58
2023-02-14T18:04:43.985Z,100105.00
2023-02-14T18:07:14.071Z,100104.07
2023-02-14T18:09:43.479Z,100101.62
2023-02-14T18:12:15.111Z,100099.46
2023-02-14T18:14:44.538Z,100100.33
2023-02-14T18:17:13.861Z,100103.67
2023-02-14T18:19:42.340Z,100096.70
2023-02-14T18:22:10.995Z,100096.79
2023-02-14T18:24:40.621Z,100103.88
2023-02-14T18:27:09.656Z,100110.00
2023-02-14T18:29:39.536Z,100117.65
2023-02-14T18:32:08.248Z,100120.47
2023-02-14T18:34:38.336Z,100125.19
2023-02-14T18:37:06.717Z,100124.58
2023-02-14T18:39:40.427Z,100118.94
2023-02-14T18:42:08.912Z,100123.45
2023-02-14T18:44:37.395Z,100126.85
2023-02-14T18:47:07.513Z,100129.91
2023-02-14T18:49:35.891Z,100133.98
2023-02-14T18:52:05.310Z,100137.65
2023-02-14T18:54:33.775Z,100134.35
2023-02-14T18:57:02.269Z,100137.11
2023-02-14T18:59:30.844Z,100137.38
2023-02-14T19:01:59.251Z,100143.34
2023-02-14T19:04:29.244Z,100142.34
2023-02-14T19:06:59.675Z,100143.65
2023-02-14T19:09:29.701Z,100148.06
2023-02-14T19:12:03.335Z,100147.91
2023-02-14T19:14:31.987Z,100152.03
2023-02-14T19:17:00.525Z,100157.20
2023-02-14T19:19:29.259Z,100161.61
2023-02-14T19:22:01.043Z,100159.50
2023-02-14T19:24:29.611Z,100158.16
2023-02-14T19:26:58.402Z,100163.63
2023-02-14T19:29:27.194Z,100162.33
2023-02-14T19:31:56.384Z,100159.48
2023-02-14T19:34:32.142Z,100165.89
2023-02-14T19:37:01.446Z,100165.87
2023-02-14T19:39:30.863Z,100165.80
2023-02-14T19:41:59.766Z,100164.60
2023-02-14T19:44:31.423Z,100168.01
2023-02-14T19:47:04.183Z,100165.15
2023-02-14T19:49:38.813Z,100170.23
2023-02-14T19:52:14.130Z,100169.45
2023-02-14T19:54:45.813Z,100173.72
2023-02-14T19:57:14.603Z,100172.35
2023-02-14T19:59:42.987Z,100173.63
2023-02-14T20:02:14.181Z,100176.46
2023-02-14T20:04:42.830Z,100179.03
2023-02-14T20:07:11.713Z,100177.55
2023-02-14T20:09:40.209Z,100174.34
2023-02-14T20:12:09.906Z,100179.14
2023-02-14T20:14:50.923Z,100181.88
2023-02-14T20:17:21.722Z,100177.10
2023-02-14T20:19:50.919Z,100184.08
2023-02-14T20:22:20.530Z,100181.80
2023-02-14T20:24:49.116Z,100181.94
2023-02-14T20:27:17.803Z,100182.41
2023-02-14T20:29:46.489Z,100184.85
2023-02-14T20:32:16.224Z,100185.20
2023-02-14T20:34:45.605Z,100134.54
2023-02-14T20:37:14.293Z,100191.05
2023-02-14T20:39:42.675Z,100188.36
2023-02-14T20:42:11.362Z,100174.91
2023-02-14T20:44:41.793Z,100193.05
2023-02-14T20:47:11.324Z,100192.83
2023-02-14T20:49:40.297Z,100196.70
2023-02-14T20:52:08.572Z,100201.15
2023-02-14T20:54:39.519Z,100197.51
2023-02-14T20:57:07.896Z,100197.38
2023-02-14T20:59:37.619Z,100199.64
2023-02-14T21:02:07.725Z,100205.20
2023-02-14T21:04:36.110Z,100206.63
2023-02-14T21:07:09.101Z,100209.80
2023-02-14T21:09:40.343Z,100212.53
2023-02-14T21:12:09.032Z,100211.63
2023-02-14T21:14:37.719Z,100211.24
2023-02-14T21:17:06.310Z,100208.67
2023-02-14T21:19:34.692Z,100207.73
2023-02-14T21:22:06.449Z,100212.80
2023-02-14T21:24:35.033Z,100216.77
2023-02-14T21:27:03.377Z,100217.41
2023-02-14T21:29:32.716Z,100217.80
2023-02-14T21:32:03.410Z,100220.02
2023-02-14T21:34:33.579Z,100218.95
2023-02-14T21:37:01.958Z,100221.05
2023-02-14T21:39:35.970Z,100223.43
2023-02-14T21:42:05.620Z,100222.70
2023-02-14T21:44:57.362Z,100225.87
2023-02-14T21:47:26.509Z,100225.56
2023-02-14T21:50:13.527Z,100227.77
2023-02-14T21:52:42.119Z,100227.17
2023-02-14T21:55:10.493Z,100228.29
2023-02-14T21:57:38.979Z,100230.27
2023-02-14T22:00:08.533Z,100230.10
2023-02-14T22:02:39.992Z,100230.59
2023-02-14T22:05:08.626Z,100227.75
2023-02-14T22:07:37.213Z,100227.33
2023-02-14T22:10:06.622Z,100227.91
2023-02-14T22:12:35.405Z,100227.17
2023-02-14T22:15:05.422Z,100229.63
2023-02-14T22:17:36.057Z,100233.39
2023-02-14T22:20:06.299Z,100234.61
2023-02-14T22:22:35.385Z,100233.48
2023-02-14T22:25:03.771Z,100230.48
2023-02-14T22:27:32.555Z,100231.87
2023-02-14T22:30:03.090Z,100233.83
2023-02-14T22:32:31.666Z,100228.80
2023-02-14T22:35:00.047Z,100228.56
2023-02-14T22:37:28.435Z,100228.86
2023-02-14T22:39:56.931Z,100226.48
2023-02-14T22:42:25.505Z,100226.86
2023-02-14T22:44:53.877Z,100224.20
2023-02-14T22:47:22.258Z,100227.23
2023-02-14T22:49:50.639Z,100223.73
2023-02-14T22:52:19.408Z,100229.62
2023-02-14T22:54:48.526Z,100227.89
2023-02-14T22:57:18.031Z,100213.84
2023-02-14T22:59:48.464Z,100226.98
2023-02-14T23:02:16.842Z,100226.77
2023-02-14T23:04:45.650Z,100224.80
2023-02-14T23:07:14.116Z,100228.52
2023-02-14T23:09:44.854Z,100226.95
2023-02-14T23:12:36.992Z,100227.15
2023-02-14T23:15:25.240Z,100228.29
2023-02-14T23:18:12.972Z,100228.53
2023-02-14T23:21:07.873Z,100234.09
2023-02-14T23:23:36.563Z,100233.77
2023-02-14T23:26:51.334Z,100230.05
2023-02-14T23:29:19.711Z,100230.48
2023-02-14T23:31:48.299Z,100232.68
2023-02-14T23:34:18.418Z,100234.03
2023-02-14T23:36:47.315Z,100237.61
2023-02-14T23:39:15.795Z,100237.76
2023-02-14T23:41:53.188Z,100245.52
2023-02-14T23:44:23.751Z,100247.61
2023-02-14T23:46:53.656Z,100237.24
2023-02-14T23:49:21.953Z,100256.64
2023-02-14T23:51:51.128Z,100256.35
2023-02-14T23:54:19.911Z,100263.36
2023-02-14T23:56:48.803Z,100260.40
2023-02-14T23:59:17.446Z,100259.86
